Time;durP1;ratioP1;P1;durP2;ratioP2;P2;SDS_P1;SDS_P2;PMS_P1;PMS_P2;Temp;Humidity;BMP_temperature;BMP_pressure;BME280_temperature;BME280_humidity;BME280_pressure;Samples;Min_cycle;Max_cycle;Signal;HPM_P1;HPM_P2
2022/04/10 00:00:13;;;;;;;;;;;6.00;99.90;6.40;99950.00;;;;345355;28;94149;-87
2022/04/10 00:00:24;;;;;;;;;;;6.00;99.90;6.40;99949.00;;;;345969;28;83775;-87
2022/04/10 00:00:36;;;;;;;;;;;6.00;99.90;6.40;99946.00;;;;346686;28;97144;-87
2022/04/10 00:00:48;;;;;;;;;;;6.00;99.90;6.50;99945.00;;;;347506;28;83454;-87
2022/04/10 00:01:00;;;;;;;;;;;6.00;99.90;6.60;99949.00;;;;344689;28;97283;-87
2022/04/10 00:01:11;;;;;;;;;;;6.00;99.90;6.50;99954.00;;;;345946;28;83526;-87
2022/04/10 00:01:23;;;;;;;;;;;6.00;99.90;6.60;99946.00;;;;346539;28;96485;-87
2022/04/10 00:01:35;;;;;;;;;;;6.00;99.90;6.50;99945.00;;;;347439;28;83308;-87
2022/04/10 00:01:49;;;;;;;;;;;6.00;99.90;6.40;99950.00;;;;345250;28;95736;-87
2022/04/10 00:02:01;;;;;;;;;;;6.00;99.90;6.40;99951.00;;;;344440;28;83567;-87
2022/04/10 00:02:13;;;;;;;;;;;6.00;99.90;6.40;99946.00;;;;345103;28;94184;-87
2022/04/10 00:02:25;;;;;;;;;;;6.00;99.90;6.50;99946.00;;;;346002;28;83395;-87
2022/04/10 00:02:36;;;;;;;;;;;6.00;99.90;6.60;99953.00;;;;345295;28;97092;-87
2022/04/10 00:02:48;;;;;;;;;;;6.00;99.90;6.70;99947.00;;;;347386;28;83418;-87
2022/04/10 00:03:00;;;;;;;;;;;6.00;99.90;6.80;99952.00;;;;346559;28;97594;-87
2022/04/10 00:03:12;;;;;;;;;;;6.00;99.90;6.80;99942.00;;;;347453;27;83450;-87
2022/04/10 00:03:26;;;;;;;;;;;6.00;99.90;6.80;99944.00;;;;348124;27;96819;-87
2022/04/10 00:03:39;;;;;;;;;;;6.00;99.90;6.80;99949.00;;;;347477;28;83344;-87
2022/04/10 00:03:51;;;;;;;;;;;6.00;99.90;6.80;99947.00;;;;345143;28;95007;-87
2022/04/10 00:04:02;;;;;;;;;;;6.00;99.90;6.70;99936.00;;;;345724;28;83317;-87
2022/04/10 00:04:14;;;;;;;;;;;6.00;99.90;6.60;99952.00;;;;346408;28;94185;-88
2022/04/10 00:04:26;;;;;;;;;;;6.00;99.90;6.60;99945.00;;;;347327;27;83454;-87
2022/04/10 00:04:38;;;;;;;;;;;6.00;99.90;6.60;99940.00;;;;345268;28;95675;-87
2022/04/10 00:04:49;;;;;;;;;;;6.00;99.90;6.60;99939.00;;;;344852;28;82391;-87
2022/04/10 00:05:01;;;;;;;;;;;6.00;99.90;6.60;99946.00;;;;344978;28;96978;-86
2022/04/10 00:05:13;;;;;;;;;;;6.00;99.90;6.70;99954.00;;;;345965;28;83462;-87
2022/04/10 00:05:25;;;;;;;;;;;6.00;99.90;6.60;99947.00;;;;346594;28;96520;-87
2022/04/10 00:05:37;;;;;;;;;;;6.00;99.90;6.60;99944.00;;;;347200;28;83149;-87
2022/04/10 00:05:50;;;;;;;;;;;6.00;99.90;6.60;99948.00;;;;345176;28;96929;-87
2022/04/10 00:06:01;;;;;;;;;;;6.00;99.90;6.50;99951.00;;;;347411;27;83377;-86
2022/04/10 00:06:13;;;;;;;;;;;6.00;99.90;6.50;99945.00;;;;345295;28;94169;-87
2022/04/10 00:06:25;;;;;;;;;;;6.00;99.90;6.40;99941.00;;;;347334;28;83431;-87
2022/04/10 00:06:37;;;;;;;;;;;6.00;99.90;6.50;99946.00;;;;345377;28;93014;-87
2022/04/10 00:06:49;;;;;;;;;;;6.00;99.90;6.50;99950.00;;;;346229;28;82412;-86
2022/04/10 00:07:00;;;;;;;;;;;6.00;99.90;6.60;99947.00;;;;344426;28;96765;-87
2022/04/10 00:07:12;;;;;;;;;;;6.00;99.90;6.50;99959.00;;;;350115;27;83459;-87
2022/04/10 00:07:24;;;;;;;;;;;5.90;99.90;6.50;99951.00;;;;346637;28;92832;-87
2022/04/10 00:07:36;;;;;;;;;;;6.00;99.90;6.50;99944.00;;;;347512;28;83359;-87
2022/04/10 00:07:47;;;;;;;;;;;6.00;99.90;6.40;99947.00;;;;345207;28;98588;-87
2022/04/10 00:07:59;;;;;;;;;;;6.00;99.90;6.40;99942.00;;;;344567;28;83416;-86
2022/04/10 00:08:11;;;;;;;;;;;6.00;99.90;6.40;99945.00;;;;343952;28;97060;-86
2022/04/10 00:08:23;;;;;;;;;;;6.00;99.90;6.40;99943.00;;;;345796;28;83364;-87
2022/04/10 00:08:34;;;;;;;;;;;6.00;99.90;6.40;99945.00;;;;345096;28;96800;-86
2022/04/10 00:08:46;;;;;;;;;;;6.00;99.90;6.40;99945.00;;;;347567;28;83272;-87
2022/04/10 00:08:58;;;;;;;;;;;6.00;99.90;6.40;99943.00;;;;345336;28;94249;-87
2022/04/10 00:09:13;;;;;;;;;;;6.00;99.90;6.40;99943.00;;;;347415;28;83336;-87
2022/04/10 00:09:25;;;;;;;;;;;6.00;99.90;6.40;99941.00;;;;346633;28;95171;-87
2022/04/10 00:09:37;;;;;;;;;;;6.00;99.90;6.50;99950.00;;;;347435;28;83436;-87
2022/04/10 00:09:48;;;;;;;;;;;5.90;99.90;6.40;99948.00;;;;348001;27;98135;-86
2022/04/10 00:10:00;;;;;;;;;;;5.90;99.90;6.40;99948.00;;;;348307;27;83390;-87
2022/04/10 00:10:12;;;;;;;;;;;5.90;99.90;6.50;99944.00;;;;345208;28;95148;-87
2022/04/10 00:10:23;;;;;;;;;;;5.90;99.90;6.50;99945.00;;;;348332;27;83590;-87
2022/04/10 00:10:35;;;;;;;;;;;5.90;99.90;6.40;99945.00;;;;346679;28;97191;-87
2022/04/10 00:10:47;;;;;;;;;;;5.90;99.90;6.50;99950.00;;;;346118;28;83277;-87
2022/04/10 00:10:59;;;;;;;;;;;5.90;99.90;6.50;99949.00;;;;345808;28;97307;-86
2022/04/10 00:11:10;;;;;;;;;;;5.90;99.90;6.50;99950.00;;;;348868;27;83431;-87
2022/04/10 00:11:22;;;;;;;;;;;5.90;99.90;6.50;99945.00;;;;345316;28;93746;-87
2022/04/10 00:11:34;;;;;;;;;;;5.90;99.90;6.50;99951.00;;;;347416;28;83291;-87
2022/04/10 00:11:46;;;;;;;;;;;5.90;99.90;6.60;99951.00;;;;346588;28;98320;-87
2022/04/10 00:11:58;;;;;;;;;;;6.00;99.90;6.50;99951.00;;;;347359;28;82559;-86
2022/04/10 00:12:10;;;;;;;;;;;5.90;99.90;6.40;99950.00;;;;345307;28;94090;-86
2022/04/10 00:12:22;;;;;;;;;;;5.90;99.90;6.40;99951.00;;;;347417;28;83417;-87
2022/04/10 00:12:34;;;;;;;;;;;5.90;99.90;6.40;99946.00;;;;346560;28;96320;-87
2022/04/10 00:12:46;;;;;;;;;;;5.90;99.90;6.40;99952.00;;;;346093;28;83306;-87
2022/04/10 00:12:58;;;;;;;;;;;5.90;99.90;6.40;99945.00;;;;344358;28;93993;-86
2022/04/10 00:13:10;;;;;;;;;;;5.90;99.90;6.40;99949.00;;;;348777;27;83373;-87
2022/04/10 00:13:22;;;;;;;;;;;5.90;99.90;6.60;99953.00;;;;346696;28;93999;-87
2022/04/10 00:13:34;;;;;;;;;;;5.90;99.90;6.60;99953.00;;;;347541;28;82498;-87
2022/04/10 00:13:46;;;;;;;;;;;5.90;99.90;6.70;99948.00;;;;346576;27;96351;-87
2022/04/10 00:13:58;;;;;;;;;;;5.90;99.90;6.70;99951.00;;;;349307;27;83402;-87
2022/04/10 00:14:09;;;;;;;;;;;5.90;99.90;6.80;99949.00;;;;347848;27;94504;-87
2022/04/10 00:14:21;;;;;;;;;;;6.00;99.90;6.80;99955.00;;;;347408;28;83197;-87
2022/04/10 00:14:33;;;;;;;;;;;6.00;99.90;6.70;99948.00;;;;345280;28;93883;-86
2022/04/10 00:14:45;;;;;;;;;;;6.00;99.90;6.80;99956.00;;;;348822;27;83357;-87
2022/04/10 00:14:57;;;;;;;;;;;6.00;99.90;6.80;99950.00;;;;346638;28;97023;-86
2022/04/10 00:15:09;;;;;;;;;;;6.00;99.90;6.70;99951.00;;;;351682;27;83359;-86
2022/04/10 00:15:21;;;;;;;;;;;6.00;99.90;6.70;99947.00;;;;347974;27;96793;-87
2022/04/10 00:15:32;;;;;;;;;;;6.00;99.90;6.70;99946.00;;;;346064;28;83172;-87
2022/04/10 00:15:44;;;;;;;;;;;6.00;99.90;6.80;99940.00;;;;346493;28;97959;-86
2022/04/10 00:15:56;;;;;;;;;;;6.00;99.90;6.80;99953.00;;;;347685;27;83539;-87
2022/04/10 00:16:08;;;;;;;;;;;6.10;99.90;6.80;99943.00;;;;345565;28;92760;-87
2022/04/10 00:16:22;;;;;;;;;;;6.00;99.90;6.70;99948.00;;;;347454;28;82476;-86
2022/04/10 00:16:34;;;;;;;;;;;6.10;99.90;6.80;99948.00;;;;345294;28;94000;-87
2022/04/10 00:16:45;;;;;;;;;;;6.10;99.90;6.80;99948.00;;;;345952;28;83314;-86
2022/04/10 00:16:57;;;;;;;;;;;6.10;99.90;6.80;99953.00;;;;344243;28;97092;-86
2022/04/10 00:17:09;;;;;;;;;;;6.10;99.90;6.70;99946.00;;;;347465;28;82353;-87
2022/04/10 00:17:21;;;;;;;;;;;6.10;99.90;6.80;99952.00;;;;345178;28;97559;-86
2022/04/10 00:17:33;;;;;;;;;;;6.10;99.90;6.70;99955.00;;;;346063;28;83391;-86
2022/04/10 00:17:45;;;;;;;;;;;6.10;99.90;6.80;99949.00;;;;346607;28;94752;-86
2022/04/10 00:17:56;;;;;;;;;;;6.10;99.90;6.80;99949.00;;;;347386;27;83466;-87
2022/04/10 00:18:08;;;;;;;;;;;6.10;99.90;6.80;99954.00;;;;345357;28;97290;-86
2022/04/10 00:18:20;;;;;;;;;;;6.10;99.90;6.70;99946.00;;;;347448;28;83351;-86
2022/04/10 00:18:32;;;;;;;;;;;6.10;99.90;6.70;99950.00;;;;348011;27;97326;-86
2022/04/10 00:18:44;;;;;;;;;;;6.10;99.90;6.70;99946.00;;;;347519;28;83284;-86
2022/04/10 00:19:01;;;;;;;;;;;6.10;99.90;6.60;99943.00;;;;346198;28;96696;-87
2022/04/10 00:19:13;;;;;;;;;;;6.10;99.90;6.60;99943.00;;;;346936;28;84083;-87
2022/04/10 00:19:25;;;;;;;;;;;6.10;99.90;6.60;99947.00;;;;346503;28;97218;-87
2022/04/10 00:19:36;;;;;;;;;;;6.10;99.90;6.60;99947.00;;;;347392;28;83629;-86
2022/04/10 00:19:48;;;;;;;;;;;6.00;99.90;6.50;99956.00;;;;345140;28;97242;-87
2022/04/10 00:20:00;;;;;;;;;;;6.00;99.90;6.60;99948.00;;;;347421;28;83458;-86
2022/04/10 00:20:11;;;;;;;;;;;6.00;99.90;6.60;99954.00;;;;348165;27;94128;-87
2022/04/10 00:20:23;;;;;;;;;;;6.00;99.90;6.50;99952.00;;;;345996;28;82373;-86
2022/04/10 00:20:36;;;;;;;;;;;6.00;99.90;6.50;99951.00;;;;346676;28;95548;-86
2022/04/10 00:20:48;;;;;;;;;;;6.00;99.90;6.50;99951.00;;;;346135;28;83396;-87
2022/04/10 00:21:01;;;;;;;;;;;6.00;99.90;6.50;99952.00;;;;346579;28;95935;-86
2022/04/10 00:21:13;;;;;;;;;;;6.00;99.90;6.50;99959.00;;;;347466;28;83324;-86
2022/04/10 00:21:24;;;;;;;;;;;6.00;99.90;6.40;99953.00;;;;346700;28;94284;-87
2022/04/10 00:21:36;;;;;;;;;;;6.00;99.90;6.40;99947.00;;;;347314;28;82489;-86
2022/04/10 00:21:48;;;;;;;;;;;6.00;99.90;6.40;99954.00;;;;346554;28;98336;-86
2022/04/10 00:22:00;;;;;;;;;;;6.00;99.90;6.50;99957.00;;;;345464;28;83464;-86
2022/04/10 00:22:12;;;;;;;;;;;6.00;99.90;6.60;99955.00;;;;345186;28;97205;-86
2022/04/10 00:22:23;;;;;;;;;;;6.00;99.90;6.60;99957.00;;;;347303;28;83386;-87
2022/04/10 00:22:45;;;;;;;;;;;6.00;99.90;6.50;99954.00;;;;345045;28;97301;-87
2022/04/10 00:22:56;;;;;;;;;;;6.00;99.90;6.40;99954.00;;;;344399;28;83028;-86
2022/04/10 00:23:09;;;;;;;;;;;6.00;99.90;6.40;99951.00;;;;346406;27;96269;-86
2022/04/10 00:23:20;;;;;;;;;;;5.90;99.90;6.40;99957.00;;;;345994;28;83323;-87
2022/04/10 00:23:32;;;;;;;;;;;5.90;99.90;6.30;99962.00;;;;345416;28;94145;-86
2022/04/10 00:23:44;;;;;;;;;;;5.90;99.90;6.30;99960.00;;;;344665;28;83089;-87
2022/04/10 00:23:56;;;;;;;;;;;5.90;99.90;6.30;99963.00;;;;345255;28;95499;-86
2022/04/10 00:24:08;;;;;;;;;;;5.90;99.90;6.30;99954.00;;;;347267;28;83268;-86
2022/04/10 00:24:19;;;;;;;;;;;5.90;99.90;6.20;99959.00;;;;345155;28;97563;-87
2022/04/10 00:24:31;;;;;;;;;;;5.90;99.90;6.20;99959.00;;;;347430;27;83311;-86
2022/04/10 00:24:43;;;;;;;;;;;5.90;99.90;6.30;99959.00;;;;345245;28;96600;-87
2022/04/10 00:24:54;;;;;;;;;;;5.80;99.90;6.20;99961.00;;;;344917;28;83291;-86
2022/04/10 00:25:07;;;;;;;;;;;5.80;99.90;6.20;99963.00;;;;346207;28;95317;-87
2022/04/10 00:25:19;;;;;;;;;;;5.80;99.90;6.30;99965.00;;;;347498;28;82454;-86
2022/04/10 00:25:31;;;;;;;;;;;5.80;99.90;6.30;99951.00;;;;348009;27;94308;-86
2022/04/10 00:25:43;;;;;;;;;;;5.80;99.90;6.30;99958.00;;;;348802;27;83257;-86
2022/04/10 00:25:55;;;;;;;;;;;5.90;99.90;6.40;99961.00;;;;349380;27;94978;-87
2022/04/10 00:26:06;;;;;;;;;;;5.80;99.90;6.40;99962.00;;;;348947;27;82379;-86
2022/04/10 00:26:18;;;;;;;;;;;5.80;99.90;6.40;99960.00;;;;346664;28;95158;-86
2022/04/10 00:26:30;;;;;;;;;;;5.80;99.90;6.40;99958.00;;;;347248;27;83491;-86
2022/04/10 00:26:42;;;;;;;;;;;5.80;99.90;6.30;99965.00;;;;346759;28;93932;-87
2022/04/10 00:26:53;;;;;;;;;;;5.80;99.90;6.30;99964.00;;;;347397;27;83263;-86
2022/04/10 00:27:06;;;;;;;;;;;5.80;99.90;6.30;99962.00;;;;345171;28;97424;-86
2022/04/10 00:27:18;;;;;;;;;;;5.80;99.90;6.30;99957.00;;;;347392;28;83359;-86
2022/04/10 00:27:30;;;;;;;;;;;5.80;99.90;6.30;99965.00;;;;345327;28;97367;-87
2022/04/10 00:27:42;;;;;;;;;;;5.80;99.90;6.30;99966.00;;;;344705;28;83224;-86
2022/04/10 00:27:53;;;;;;;;;;;5.80;99.90;6.30;99968.00;;;;347403;27;97289;-87
2022/04/10 00:28:06;;;;;;;;;;;5.80;99.90;6.20;99965.00;;;;348749;27;83514;-86
2022/04/10 00:28:18;;;;;;;;;;;5.80;99.90;6.20;99971.00;;;;346607;28;93783;-87
2022/04/10 00:28:30;;;;;;;;;;;5.80;99.90;6.30;99968.00;;;;348496;27;83534;-87
2022/04/10 00:28:41;;;;;;;;;;;5.80;99.90;6.30;99966.00;;;;348017;27;96775;-87
2022/04/10 00:28:54;;;;;;;;;;;5.80;99.90;6.40;99968.00;;;;348940;27;83339;-86
2022/04/10 00:29:05;;;;;;;;;;;5.80;99.90;6.40;99966.00;;;;345066;28;97544;-86
2022/04/10 00:29:17;;;;;;;;;;;5.80;99.90;6.30;99967.00;;;;346127;28;83432;-87
2022/04/10 00:29:29;;;;;;;;;;;5.80;99.90;6.20;99972.00;;;;346611;28;97084;-86
2022/04/10 00:29:41;;;;;;;;;;;5.80;99.90;6.20;99968.00;;;;345905;28;83415;-87
2022/04/10 00:29:53;;;;;;;;;;;5.80;99.90;6.10;99966.00;;;;343780;28;97907;-87
2022/04/10 00:30:10;;;;;;;;;;;5.80;99.90;6.10;99968.00;;;;345893;28;83430;-87
2022/04/10 00:30:23;;;;;;;;;;;5.80;99.90;6.10;99967.00;;;;343755;28;97863;-87
2022/04/10 00:30:34;;;;;;;;;;;5.70;99.90;6.20;99968.00;;;;346146;28;83284;-86
2022/04/10 00:30:46;;;;;;;;;;;5.70;99.90;6.20;99969.00;;;;346612;28;97081;-86
2022/04/10 00:30:58;;;;;;;;;;;5.80;99.90;6.20;99966.00;;;;345461;28;82699;-87
2022/04/10 00:31:11;;;;;;;;;;;5.70;99.90;6.20;99973.00;;;;346483;28;95371;-87
2022/04/10 00:31:23;;;;;;;;;;;5.70;99.90;6.20;99971.00;;;;346035;28;83217;-86
2022/04/10 00:31:34;;;;;;;;;;;5.70;99.90;6.20;99959.00;;;;345329;28;94273;-86
2022/04/10 00:31:46;;;;;;;;;;;5.70;99.90;6.20;99980.00;;;;345946;28;83468;-86
2022/04/10 00:31:59;;;;;;;;;;;5.70;99.90;6.20;99969.00;;;;345047;28;98505;-86
2022/04/10 00:32:11;;;;;;;;;;;5.70;99.90;6.30;99971.00;;;;346133;28;83248;-87
2022/04/10 00:32:27;;;;;;;;;;;5.70;99.90;6.40;99965.00;;;;345224;28;93825;-87
2022/04/10 00:32:39;;;;;;;;;;;5.70;99.90;6.30;99966.00;;;;347367;28;83347;-86
2022/04/10 00:32:52;;;;;;;;;;;5.70;99.90;6.40;99966.00;;;;343984;28;94131;-86
2022/04/10 00:33:04;;;;;;;;;;;5.70;99.90;6.30;99967.00;;;;343290;28;82466;-87
2022/04/10 00:33:16;;;;;;;;;;;5.70;99.90;6.30;99965.00;;;;345283;28;96451;-87
2022/04/10 00:33:27;;;;;;;;;;;5.70;99.90;6.30;99961.00;;;;344640;28;83449;-86
2022/04/10 00:33:39;;;;;;;;;;;5.70;99.90;6.40;99969.00;;;;346544;27;93836;-86
2022/04/10 00:33:51;;;;;;;;;;;5.70;99.90;6.40;99969.00;;;;348690;27;83341;-87
2022/04/10 00:34:03;;;;;;;;;;;5.70;99.90;6.40;99966.00;;;;345881;28;97964;-86
2022/04/10 00:34:14;;;;;;;;;;;5.70;99.90;6.50;99959.00;;;;346085;28;83361;-87
2022/04/10 00:34:26;;;;;;;;;;;5.80;99.90;6.50;99968.00;;;;343707;28;96331;-87
2022/04/10 00:34:38;;;;;;;;;;;5.70;99.90;6.50;99968.00;;;;346061;28;83245;-86
2022/04/10 00:34:50;;;;;;;;;;;5.80;99.90;6.50;99965.00;;;;348081;27;95379;-86
2022/04/10 00:35:02;;;;;;;;;;;5.80;99.90;6.50;99971.00;;;;347261;28;83509;-86
2022/04/10 00:35:14;;;;;;;;;;;5.80;99.90;6.50;99965.00;;;;346619;28;96945;-87
2022/04/10 00:35:25;;;;;;;;;;;5.80;99.90;6.50;99970.00;;;;347443;28;82466;-86
2022/04/10 00:35:37;;;;;;;;;;;5.80;99.90;6.50;99966.00;;;;348107;27;93753;-87
2022/04/10 00:35:49;;;;;;;;;;;5.80;99.90;6.40;99968.00;;;;347399;28;82605;-86
2022/04/10 00:36:02;;;;;;;;;;;5.80;99.90;6.40;99973.00;;;;345148;28;95142;-86
2022/04/10 00:36:14;;;;;;;;;;;5.80;99.90;6.50;99978.00;;;;348664;27;83198;-86
2022/04/10 00:36:25;;;;;;;;;;;5.80;99.90;6.40;99967.00;;;;346610;28;96696;-86
2022/04/10 00:36:37;;;;;;;;;;;5.80;99.90;6.30;99968.00;;;;347418;28;83287;-87
2022/04/10 00:36:49;;;;;;;;;;;5.80;99.90;6.30;99968.00;;;;346717;28;97566;-87
2022/04/10 00:37:01;;;;;;;;;;;5.80;99.90;6.30;99968.00;;;;345617;28;82617;-86
2022/04/10 00:37:12;;;;;;;;;;;5.80;99.90;6.30;99971.00;;;;347021;27;94277;-86
2022/04/10 00:37:25;;;;;;;;;;;5.80;99.90;6.30;99970.00;;;;346229;28;82280;-86
2022/04/10 00:37:37;;;;;;;;;;;5.80;99.90;6.40;99968.00;;;;345198;28;97302;-86
2022/04/10 00:37:49;;;;;;;;;;;5.80;99.90;6.50;99970.00;;;;344608;28;83448;-87
2022/04/10 00:38:01;;;;;;;;;;;5.80;99.90;6.50;99972.00;;;;344603;28;97669;-86
2022/04/10 00:38:13;;;;;;;;;;;5.90;99.90;6.50;99977.00;;;;347396;28;83199;-86
2022/04/10 00:38:24;;;;;;;;;;;5.80;99.90;6.50;99968.00;;;;345245;28;94100;-87
2022/04/10 00:38:36;;;;;;;;;;;5.80;99.90;6.40;99972.00;;;;346003;28;83378;-86
2022/04/10 00:38:48;;;;;;;;;;;5.80;99.90;6.50;99973.00;;;;346447;28;97087;-87
2022/04/10 00:39:00;;;;;;;;;;;5.80;99.90;6.40;99973.00;;;;348786;27;83741;-86
2022/04/10 00:39:12;;;;;;;;;;;5.80;99.90;6.40;99964.00;;;;346644;28;96724;-86
2022/04/10 00:39:24;;;;;;;;;;;5.80;99.90;6.40;99972.00;;;;346103;28;83278;-86
2022/04/10 00:39:36;;;;;;;;;;;5.80;99.90;6.50;99970.00;;;;346630;28;95295;-86
2022/04/10 00:39:48;;;;;;;;;;;5.80;99.90;6.50;99976.00;;;;347386;28;83559;-86
2022/04/10 00:40:00;;;;;;;;;;;5.80;99.90;6.50;99971.00;;;;347391;27;97263;-86
2022/04/10 00:40:11;;;;;;;;;;;5.80;99.90;6.40;99974.00;;;;347302;28;83289;-86
2022/04/10 00:40:23;;;;;;;;;;;5.80;99.90;6.30;99971.00;;;;347808;27;97957;-87
2022/04/10 00:40:35;;;;;;;;;;;5.80;99.90;6.30;99968.00;;;;347441;27;83450;-86
2022/04/10 00:40:48;;;;;;;;;;;5.80;99.90;6.20;99977.00;;;;346627;28;95730;-86
2022/04/10 00:40:59;;;;;;;;;;;5.80;99.90;6.10;99979.00;;;;346459;28;83459;-86
2022/04/10 00:41:11;;;;;;;;;;;5.80;99.90;6.10;99971.00;;;;345053;28;97051;-86
2022/04/10 00:41:23;;;;;;;;;;;5.70;99.90;6.20;99976.00;;;;348752;27;83436;-87
2022/04/10 00:41:35;;;;;;;;;;;5.70;99.90;6.20;99977.00;;;;345219;28;95858;-87
2022/04/10 00:41:46;;;;;;;;;;;5.70;99.90;6.30;99974.00;;;;347332;28;83362;-86
2022/04/10 00:41:58;;;;;;;;;;;5.70;99.90;6.30;99973.00;;;;346474;28;98307;-86
2022/04/10 00:42:10;;;;;;;;;;;5.70;99.90;6.20;99976.00;;;;346061;28;83404;-87
2022/04/10 00:42:22;;;;;;;;;;;5.70;99.90;6.30;99967.00;;;;345194;28;95543;-87
2022/04/10 00:42:41;;;;;;;;;;;5.70;99.90;6.20;99976.00;;;;346086;28;83298;-86
2022/04/10 00:42:53;;;;;;;;;;;5.70;99.90;6.30;99969.00;;;;345878;28;96354;-86
2022/04/10 00:43:05;;;;;;;;;;;5.70;99.90;6.20;99975.00;;;;344117;28;82626;-87
2022/04/10 00:43:17;;;;;;;;;;;5.70;99.90;6.20;99974.00;;;;343785;28;97496;-86
2022/04/10 00:43:32;;;;;;;;;;;5.70;99.90;6.30;99971.00;;;;344245;28;83424;-87
2022/04/10 00:44:06;;;;;;;;;;;5.70;99.90;6.20;99977.00;;;;343843;28;94494;-87
2022/04/10 00:44:18;;;;;;;;;;;5.70;99.90;6.20;99971.00;;;;344448;28;83326;-86
2022/04/10 00:44:33;;;;;;;;;;;5.70;99.90;6.30;99968.00;;;;346639;28;94201;-86
2022/04/10 00:44:45;;;;;;;;;;;5.70;99.90;6.30;99961.00;;;;347449;28;83399;-86
2022/04/10 00:44:57;;;;;;;;;;;5.70;99.90;6.30;99973.00;;;;345362;28;94556;-86
2022/04/10 00:45:09;;;;;;;;;;;5.70;99.90;6.30;99968.00;;;;346072;28;83442;-86
2022/04/10 00:45:21;;;;;;;;;;;5.70;99.90;6.30;99967.00;;;;343785;28;96800;-87
2022/04/10 00:45:32;;;;;;;;;;;5.70;99.90;6.30;99958.00;;;;346063;28;83219;-86
2022/04/10 00:45:45;;;;;;;;;;;5.70;99.90;6.30;99968.00;;;;345135;28;97144;-87
2022/04/10 00:45:57;;;;;;;;;;;5.70;99.90;6.30;99968.00;;;;348299;27;83815;-87
2022/04/10 00:46:09;;;;;;;;;;;5.70;99.90;6.30;99965.00;;;;346444;28;96389;-86
2022/04/10 00:46:21;;;;;;;;;;;5.70;99.90;6.20;99977.00;;;;345981;28;83372;-87
2022/04/10 00:46:33;;;;;;;;;;;5.70;99.90;6.20;99973.00;;;;345210;28;95394;-86
2022/04/10 00:46:45;;;;;;;;;;;5.70;99.90;6.10;99973.00;;;;344712;28;82564;-87
2022/04/10 00:46:57;;;;;;;;;;;5.70;99.90;6.10;99967.00;;;;344194;28;96755;-87
2022/04/10 00:47:12;;;;;;;;;;;5.70;99.90;6.20;99971.00;;;;345994;28;83355;-87
2022/04/10 00:47:24;;;;;;;;;;;5.70;99.90;6.10;99967.00;;;;346589;28;96914;-86
2022/04/10 00:47:35;;;;;;;;;;;5.60;99.90;6.20;99970.00;;;;348839;27;83366;-86
2022/04/10 00:47:47;;;;;;;;;;;5.60;99.90;6.20;99966.00;;;;345170;28;96723;-87
2022/04/10 00:47:59;;;;;;;;;;;5.60;99.90;6.20;99971.00;;;;348859;27;82437;-87
2022/04/10 00:48:11;;;;;;;;;;;5.70;99.90;6.30;99967.00;;;;346268;28;97739;-87
2022/04/10 00:48:23;;;;;;;;;;;5.70;99.90;6.30;99963.00;;;;344591;28;83364;-86
2022/04/10 00:48:36;;;;;;;;;;;5.60;99.90;6.30;99968.00;;;;345252;28;95088;-86
2022/04/10 00:48:48;;;;;;;;;;;5.70;99.90;6.30;99968.00;;;;345959;28;83425;-87
2022/04/10 00:49:00;;;;;;;;;;;5.70;99.90;6.30;99963.00;;;;345820;28;96822;-87
2022/04/10 00:49:12;;;;;;;;;;;5.70;99.90;6.20;99976.00;;;;345870;28;83515;-86
2022/04/10 00:49:24;;;;;;;;;;;5.70;99.90;6.20;99970.00;;;;345150;28;96801;-87
2022/04/10 00:49:36;;;;;;;;;;;5.70;99.90;6.30;99967.00;;;;344620;28;83373;-87
2022/04/10 00:49:48;;;;;;;;;;;5.70;99.90;6.40;99973.00;;;;345354;28;94038;-87
2022/04/10 00:50:01;;;;;;;;;;;5.70;99.90;6.30;99974.00;;;;347240;28;83897;-87
2022/04/10 00:50:14;;;;;;;;;;;5.70;99.90;6.30;99959.00;;;;346591;28;97198;-87
2022/04/10 00:50:26;;;;;;;;;;;5.70;99.90;6.40;99958.00;;;;347296;28;83429;-87
2022/04/10 00:51:40;;;;;;;;;;;5.70;99.90;6.40;99960.00;;;;347980;27;98195;-86
2022/04/10 00:51:51;;;;;;;;;;;5.70;99.90;6.20;99967.00;;;;347996;27;94313;-86
2022/04/10 00:52:07;;;;;;;;;;;5.70;99.90;6.10;99963.00;;;;347064;28;82434;-86
2022/04/10 00:52:19;;;;;;;;;;;5.60;99.90;6.00;99965.00;;;;342515;28;94635;-86
2022/04/10 00:52:30;;;;;;;;;;;5.60;99.90;6.00;99962.00;;;;348442;27;83398;-86
2022/04/10 00:52:42;;;;;;;;;;;5.60;99.90;6.00;99970.00;;;;346571;28;96902;-86
2022/04/10 00:52:54;;;;;;;;;;;5.60;99.90;6.00;99967.00;;;;345895;28;83395;-86
2022/04/10 00:53:06;;;;;;;;;;;5.60;99.90;6.00;99964.00;;;;345200;28;96620;-86
2022/04/10 00:53:18;;;;;;;;;;;5.60;99.90;6.00;99961.00;;;;348906;27;83118;-87
2022/04/10 00:53:29;;;;;;;;;;;5.60;99.90;6.00;99967.00;;;;347966;27;96647;-86
2022/04/10 00:53:41;;;;;;;;;;;5.60;99.90;6.00;99962.00;;;;350197;27;83174;-87
2022/04/10 00:53:53;;;;;;;;;;;5.60;99.90;6.00;99966.00;;;;346607;28;94582;-89
2022/04/10 00:54:05;;;;;;;;;;;5.50;99.90;6.00;99964.00;;;;345978;28;83416;-89
2022/04/10 00:54:17;;;;;;;;;;;5.60;99.90;6.00;99963.00;;;;345374;28;94824;-89
2022/04/10 00:54:30;;;;;;;;;;;5.60;99.90;6.00;99964.00;;;;344742;28;83395;-88
2022/04/10 00:54:42;;;;;;;;;;;5.50;99.90;6.00;99967.00;;;;342546;28;96723;-89
2022/04/10 00:54:53;;;;;;;;;;;5.50;99.90;6.00;99967.00;;;;344656;28;82545;-89
2022/04/10 00:55:06;;;;;;;;;;;5.50;99.90;6.00;99968.00;;;;346162;28;96425;-89
2022/04/10 00:55:17;;;;;;;;;;;5.50;99.90;6.00;99958.00;;;;346067;28;83410;-89
2022/04/10 00:55:29;;;;;;;;;;;5.50;99.90;6.00;99968.00;;;;347543;27;96213;-89
2022/04/10 00:55:41;;;;;;;;;;;5.50;99.90;6.10;99961.00;;;;347421;28;82472;-86
2022/04/10 00:55:53;;;;;;;;;;;5.50;99.90;6.10;99964.00;;;;348094;27;96483;-89
2022/04/10 00:56:05;;;;;;;;;;;5.50;99.90;6.10;99967.00;;;;346116;28;83327;-88
2022/04/10 00:56:16;;;;;;;;;;;5.50;99.90;6.00;99972.00;;;;346638;28;95852;-89
2022/04/10 00:56:29;;;;;;;;;;;5.50;99.90;5.90;99963.00;;;;346088;28;83338;-88
2022/04/10 00:56:41;;;;;;;;;;;5.50;99.90;5.90;99970.00;;;;343853;28;96368;-89
2022/04/10 00:56:53;;;;;;;;;;;5.50;99.90;6.00;99959.00;;;;347568;28;83374;-89
2022/04/10 00:57:06;;;;;;;;;;;5.50;99.90;6.00;99966.00;;;;345067;28;95364;-89
2022/04/10 00:57:18;;;;;;;;;;;5.50;99.90;5.90;99971.00;;;;346047;28;83647;-88
2022/04/10 00:57:30;;;;;;;;;;;5.50;99.90;5.90;99968.00;;;;345304;28;96252;-89
2022/04/10 00:57:44;;;;;;;;;;;5.50;99.90;6.00;99966.00;;;;344603;28;83213;-88
2022/04/10 00:57:55;;;;;;;;;;;5.50;99.90;5.90;99971.00;;;;345019;28;95183;-89
2022/04/10 00:58:07;;;;;;;;;;;5.50;99.90;5.90;99965.00;;;;344475;28;82575;-88
2022/04/10 00:58:19;;;;;;;;;;;5.50;99.90;6.00;99971.00;;;;345198;28;97048;-89
2022/04/10 00:58:31;;;;;;;;;;;5.40;99.90;5.90;99962.00;;;;345963;28;83383;-88
2022/04/10 00:58:43;;;;;;;;;;;5.50;99.90;5.90;99966.00;;;;345307;28;96475;-89
2022/04/10 00:59:02;;;;;;;;;;;5.40;99.90;6.00;99965.00;;;;346903;28;83541;-88
2022/04/10 00:59:14;;;;;;;;;;;5.40;99.90;5.90;99966.00;;;;343888;28;97241;-88
2022/04/10 00:59:25;;;;;;;;;;;5.40;99.90;6.00;99964.00;;;;344745;28;82524;-89
2022/04/10 00:59:37;;;;;;;;;;;5.40;99.90;5.90;99966.00;;;;344891;28;96357;-88
2022/04/10 00:59:49;;;;;;;;;;;5.40;99.90;5.90;99967.00;;;;346085;28;83383;-88
2022/04/10 01:00:02;;;;;;;;;;;5.40;99.90;5.90;99967.00;;;;346624;28;95905;-88
2022/04/10 01:00:14;;;;;;;;;;;5.40;99.90;5.90;99961.00;;;;346142;28;82321;-89
2022/04/10 01:00:26;;;;;;;;;;;5.40;99.90;5.90;99968.00;;;;346612;28;96832;-89
2022/04/10 01:00:38;;;;;;;;;;;5.40;99.90;5.90;99968.00;;;;346069;28;83397;-88
2022/04/10 01:00:50;;;;;;;;;;;5.40;99.90;5.90;99970.00;;;;343946;28;96360;-88
2022/04/10 01:01:02;;;;;;;;;;;5.40;99.90;5.90;99958.00;;;;348439;27;83347;-88
2022/04/10 01:01:14;;;;;;;;;;;5.40;99.90;5.90;99968.00;;;;346656;27;95455;-88
2022/04/10 01:01:26;;;;;;;;;;;5.40;99.90;5.90;99970.00;;;;347175;28;82562;-89
2022/04/10 01:01:39;;;;;;;;;;;5.30;99.90;5.90;99970.00;;;;343827;28;96883;-89
2022/04/10 01:02:10;;;;;;;;;;;5.40;99.90;5.90;99966.00;;;;347461;28;83387;-88
2022/04/10 01:02:23;;;;;;;;;;;5.30;99.90;6.00;99960.00;;;;345187;28;97268;-88
2022/04/10 01:02:38;;;;;;;;;;;5.30;99.90;5.90;99968.00;;;;344620;28;83374;-89
2022/04/10 01:02:50;;;;;;;;;;;5.40;99.90;5.90;99966.00;;;;345305;28;96443;-88
2022/04/10 01:03:01;;;;;;;;;;;5.40;99.90;5.90;99961.00;;;;344563;28;83468;-89
2022/04/10 01:03:13;;;;;;;;;;;5.40;99.90;6.00;99961.00;;;;345218;28;96438;-88
2022/04/10 01:03:25;;;;;;;;;;;5.40;99.90;5.90;99963.00;;;;344718;28;83450;-89